Time;durP1;ratioP1;P1;durP2;ratioP2;P2;SDS_P1;SDS_P2;PMS_P1;PMS_P2;Temp;Humidity;BMP_temperature;BMP_pressure;BME280_temperature;BME280_humidity;BME280_pressure;Samples;Min_cycle;Max_cycle;Signal;HPM_P1;HPM_P2
2023/05/04 00:00:55;;;;;;;4.70;4.30;;;14.60;32.00;;;;;;10484198;28;20592;-68
2023/05/04 00:05:59;;;;;;;5.53;5.07;;;14.50;32.10;;;;;;10480496;28;20232;-67
2023/05/04 00:11:03;;;;;;;4.93;4.53;;;14.50;32.00;;;;;;10480564;28;20232;-68
2023/05/04 00:16:06;;;;;;;4.10;3.70;;;14.30;31.50;;;;;;10479835;28;20239;-68
2023/05/04 00:21:14;;;;;;;3.90;3.60;;;14.20;32.10;;;;;;10479830;28;20274;-68
2023/05/04 00:26:17;;;;;;;4.40;4.10;;;14.00;32.30;;;;;;10478638;28;20590;-68
2023/05/04 00:31:20;;;;;;;4.97;4.53;;;13.90;32.40;;;;;;10482087;28;20314;-68
2023/05/04 00:36:25;;;;;;;5.47;4.97;;;13.90;32.50;;;;;;10481049;28;20225;-68
2023/05/04 00:41:28;;;;;;;3.70;3.40;;;13.80;32.80;;;;;;10478729;28;20557;-67
2023/05/04 00:46:32;;;;;;;5.10;4.70;;;13.80;32.50;;;;;;10479054;28;20248;-68
2023/05/04 00:51:37;;;;;;;4.77;4.37;;;13.70;32.50;;;;;;10478879;28;20751;-68
2023/05/04 00:56:42;;;;;;;4.37;4.00;;;13.70;32.80;;;;;;10475060;28;20225;-68
2023/05/04 01:01:45;;;;;;;5.30;4.87;;;13.70;32.70;;;;;;10480526;28;20720;-68
2023/05/04 01:06:58;;;;;;;4.67;4.27;;;13.60;32.70;;;;;;10479709;28;20611;-68
2023/05/04 01:12:06;;;;;;;4.00;3.60;;;13.50;33.00;;;;;;10476752;28;21004;-68
2023/05/04 01:17:09;;;;;;;4.57;3.77;;;13.40;32.90;;;;;;10480396;28;20228;-67
2023/05/04 01:22:14;;;;;;;4.50;4.20;;;13.30;32.60;;;;;;10478312;28;20790;-68
2023/05/04 01:27:23;;;;;;;4.00;3.70;;;13.20;33.10;;;;;;10476560;28;20235;-68
2023/05/04 01:32:28;;;;;;;5.13;4.63;;;13.10;33.30;;;;;;10479816;28;20244;-68
2023/05/04 01:37:34;;;;;;;5.30;4.80;;;13.00;33.10;;;;;;10477591;28;20228;-68
2023/05/04 01:42:37;;;;;;;6.17;5.67;;;12.90;32.90;;;;;;10476137;28;20220;-67
2023/05/04 01:47:40;;;;;;;6.00;5.50;;;12.70;32.70;;;;;;10478217;28;20608;-67
2023/05/04 01:52:44;;;;;;;6.07;5.47;;;12.60;33.10;;;;;;10476452;28;20716;-67
2023/05/04 01:57:48;;;;;;;6.53;5.77;;;12.40;33.30;;;;;;10477220;28;20239;-67
2023/05/04 02:02:51;;;;;;;5.27;4.87;;;12.20;33.30;;;;;;10476165;28;20270;-68
2023/05/04 02:07:55;;;;;;;5.17;4.77;;;12.10;33.40;;;;;;10477160;28;20244;-67
2023/05/04 02:12:59;;;;;;;6.00;5.50;;;12.10;33.90;;;;;;10472429;28;20229;-67
2023/05/04 02:18:02;;;;;;;4.77;4.37;;;12.00;33.60;;;;;;10483369;28;20309;-67
2023/05/04 02:23:07;;;;;;;5.57;5.17;;;12.00;33.90;;;;;;10477002;28;20228;-68
2023/05/04 02:28:10;;;;;;;5.67;5.17;;;12.00;34.20;;;;;;10476852;28;20244;-68
2023/05/04 02:33:13;;;;;;;5.53;5.13;;;11.90;34.00;;;;;;10468059;28;20232;-67
2023/05/04 02:38:18;;;;;;;4.63;4.23;;;11.90;33.90;;;;;;10491634;28;20290;-67
2023/05/04 02:43:21;;;;;;;5.10;4.70;;;11.80;34.20;;;;;;10477733;28;20228;-68
2023/05/04 02:48:24;;;;;;;4.57;4.27;;;11.80;34.00;;;;;;10474448;28;20232;-68
2023/05/04 02:53:29;;;;;;;4.20;3.90;;;11.70;34.20;;;;;;10479080;28;20228;-68
2023/05/04 02:58:32;;;;;;;4.50;4.10;;;11.70;34.40;;;;;;10483120;28;20597;-67
2023/05/04 03:03:35;;;;;;;5.83;5.33;;;11.70;34.30;;;;;;10485552;28;20228;-69
2023/05/04 03:08:40;;;;;;;5.87;5.37;;;11.70;34.40;;;;;;10480928;28;20228;-67
2023/05/04 03:13:43;;;;;;;6.03;5.40;;;11.70;34.50;;;;;;10485384;28;20240;-68
2023/05/04 03:18:46;;;;;;;5.37;4.63;;;11.70;34.10;;;;;;10485342;28;20231;-68
2023/05/04 03:24:08;;;;;;;5.13;4.67;;;11.60;34.20;;;;;;10482264;28;20231;-67
2023/05/04 03:29:11;;;;;;;5.40;4.87;;;11.50;34.60;;;;;;10479853;28;20240;-68
2023/05/04 03:34:14;;;;;;;4.63;4.33;;;11.40;34.30;;;;;;10481100;28;20236;-68
2023/05/04 03:39:19;;;;;;;6.57;5.97;;;11.40;34.40;;;;;;10483482;28;20232;-67
2023/05/04 03:44:22;;;;;;;5.53;5.07;;;11.30;34.70;;;;;;10482572;28;20232;-67
2023/05/04 03:49:25;;;;;;;5.57;5.17;;;11.20;34.70;;;;;;10482707;28;20232;-67
2023/05/04 03:54:30;;;;;;;6.20;5.70;;;11.20;34.70;;;;;;10478401;28;20232;-67
2023/05/04 03:59:33;;;;;;;5.43;5.03;;;11.20;35.00;;;;;;10477469;28;20232;-67
2023/05/04 04:04:37;;;;;;;4.80;4.40;;;11.20;34.50;;;;;;10481660;28;20227;-67
2023/05/04 04:09:41;;;;;;;4.50;4.20;;;11.20;34.70;;;;;;10479568;28;20319;-67
2023/05/04 04:14:45;;;;;;;4.80;4.30;;;11.10;34.80;;;;;;10480217;28;20213;-67
2023/05/04 04:19:48;;;;;;;4.03;3.73;;;11.10;34.80;;;;;;10480098;28;20809;-67
2023/05/04 04:24:52;;;;;;;4.07;3.77;;;11.10;34.70;;;;;;10478054;28;20228;-67
2023/05/04 04:29:56;;;;;;;4.63;4.23;;;11.00;35.00;;;;;;10477981;28;20229;-67
2023/05/04 04:34:59;;;;;;;4.47;4.07;;;11.00;35.00;;;;;;10476338;28;20224;-67
2023/05/04 04:40:06;;;;;;;5.20;4.67;;;10.90;35.00;;;;;;10477760;28;20232;-68
2023/05/04 04:45:10;;;;;;;4.97;4.60;;;10.90;35.60;;;;;;10481673;28;20259;-66
2023/05/04 04:50:13;;;;;;;5.60;4.40;;;10.90;35.50;;;;;;10476280;28;20727;-67
2023/05/04 04:55:19;;;;;;;5.83;5.33;;;11.00;35.70;;;;;;10476120;28;20229;-67
2023/05/04 05:00:22;;;;;;;5.00;4.60;;;11.00;36.30;;;;;;10477353;28;20224;-67
2023/05/04 05:05:26;;;;;;;5.87;5.30;;;11.10;36.10;;;;;;10476359;28;20228;-67
2023/05/04 05:10:32;;;;;;;7.03;5.97;;;11.10;36.30;;;;;;10477600;28;20239;-67
2023/05/04 05:15:35;;;;;;;6.93;6.23;;;11.20;37.00;;;;;;10477478;28;20232;-67
2023/05/04 05:20:38;;;;;;;6.80;6.07;;;11.30;36.90;;;;;;10479429;28;20225;-70
2023/05/04 05:25:43;;;;;;;7.07;6.30;;;11.40;37.00;;;;;;10475648;28;20235;-69
2023/05/04 05:30:48;;;;;;;7.10;6.40;;;11.60;38.30;;;;;;10473159;28;20597;-67
2023/05/04 05:35:51;;;;;;;7.03;6.20;;;11.70;37.50;;;;;;10476688;28;20655;-68
2023/05/04 05:40:56;;;;;;;7.60;6.13;;;11.90;37.70;;;;;;10477638;28;20326;-68
2023/05/04 05:45:59;;;;;;;6.53;5.93;;;12.00;38.00;;;;;;10477873;28;20250;-68
2023/05/04 05:51:03;;;;;;;6.80;6.10;;;12.10;37.50;;;;;;10478582;28;20237;-69
2023/05/04 05:56:07;;;;;;;6.87;6.17;;;12.30;37.80;;;;;;10474692;28;20243;-68
2023/05/04 06:01:10;;;;;;;6.60;5.50;;;12.40;38.20;;;;;;10478786;28;20612;-68
2023/05/04 06:06:14;;;;;;;6.17;5.53;;;12.50;37.70;;;;;;10459469;28;20235;-69
2023/05/04 06:11:19;;;;;;;5.77;5.27;;;12.60;37.30;;;;;;10458005;28;20232;-68
2023/05/04 06:16:22;;;;;;;5.67;5.17;;;12.80;37.30;;;;;;10463388;28;20255;-67
2023/05/04 06:21:25;;;;;;;7.20;5.07;;;13.00;37.30;;;;;;10460343;28;20224;-68
2023/05/04 06:26:30;;;;;;;6.03;5.43;;;13.20;37.20;;;;;;10466040;28;20880;-68
2023/05/04 06:31:33;;;;;;;5.80;5.20;;;13.40;37.20;;;;;;10468537;28;20604;-67
2023/05/04 06:36:36;;;;;;;6.73;4.77;;;13.60;37.00;;;;;;10472221;28;20772;-68
2023/05/04 06:41:41;;;;;;;6.00;5.10;;;13.70;36.90;;;;;;10473343;28;20216;-68
2023/05/04 06:46:44;;;;;;;7.63;4.93;;;13.90;36.70;;;;;;10468328;28;20779;-68
2023/05/04 06:51:47;;;;;;;7.67;5.17;;;14.10;36.80;;;;;;10470223;28;21112;-68
2023/05/04 06:56:52;;;;;;;5.37;4.87;;;14.30;36.80;;;;;;10469907;28;20653;-70
2023/05/04 07:01:55;;;;;;;5.77;5.00;;;14.50;36.70;;;;;;10470290;28;20232;-68
2023/05/04 07:06:58;;;;;;;5.33;4.83;;;14.70;36.80;;;;;;10470099;28;20224;-67
2023/05/04 07:12:04;;;;;;;5.20;4.70;;;14.90;36.60;;;;;;10469267;28;20286;-71
2023/05/04 07:17:08;;;;;;;4.77;4.37;;;15.10;36.30;;;;;;10471377;28;20992;-68
2023/05/04 07:22:12;;;;;;;5.63;4.10;;;15.20;36.50;;;;;;10469065;28;20266;-70
2023/05/04 07:27:17;;;;;;;5.27;4.77;;;15.40;36.50;;;;;;10470108;28;20232;-68
2023/05/04 07:32:20;;;;;;;4.93;4.43;;;15.60;36.20;;;;;;10470327;28;20759;-68
2023/05/04 07:37:23;;;;;;;5.13;4.33;;;15.80;36.30;;;;;;10466196;28;20310;-68
2023/05/04 07:42:29;;;;;;;5.37;4.87;;;16.00;36.20;;;;;;10470124;28;20227;-68
2023/05/04 07:47:32;;;;;;;5.67;4.87;;;16.20;36.00;;;;;;10472446;28;21009;-68
2023/05/04 07:52:35;;;;;;;5.50;4.97;;;16.40;36.30;;;;;;10466562;28;20306;-68
2023/05/04 07:57:40;;;;;;;5.53;5.03;;;16.50;35.90;;;;;;10470058;28;20238;-68
2023/05/04 08:02:43;;;;;;;7.00;5.47;;;16.70;35.50;;;;;;10466860;28;20225;-68
2023/05/04 08:07:46;;;;;;;6.03;5.53;;;16.90;35.50;;;;;;10470643;28;20241;-67
2023/05/04 08:12:51;;;;;;;5.53;5.03;;;17.00;35.60;;;;;;10469095;28;20255;-68
2023/05/04 08:17:54;;;;;;;5.77;5.23;;;17.20;36.00;;;;;;10479715;28;20240;-68
2023/05/04 08:22:58;;;;;;;5.57;5.07;;;17.40;36.50;;;;;;10477558;28;20229;-67
2023/05/04 08:28:03;;;;;;;5.87;5.27;;;17.60;35.40;;;;;;10480072;28;20232;-67
2023/05/04 08:33:06;;;;;;;5.90;5.30;;;17.80;34.60;;;;;;10478366;28;20220;-67
2023/05/04 08:38:09;;;;;;;6.00;5.50;;;18.00;34.80;;;;;;10477752;28;20277;-68
2023/05/04 08:43:14;;;;;;;5.27;4.87;;;18.20;34.90;;;;;;10474188;28;20830;-68
2023/05/04 08:48:17;;;;;;;5.70;5.20;;;18.40;35.10;;;;;;10478631;28;20221;-68
2023/05/04 08:53:22;;;;;;;6.13;5.30;;;18.60;35.30;;;;;;10478889;28;20231;-68
2023/05/04 08:58:27;;;;;;;6.13;5.63;;;18.80;34.80;;;;;;10477982;28;20378;-68
2023/05/04 09:03:31;;;;;;;5.70;5.30;;;18.80;33.90;;;;;;10460839;28;20258;-68
2023/05/04 09:08:35;;;;;;;5.67;4.93;;;19.00;34.30;;;;;;10458626;28;20310;-68
2023/05/04 09:13:41;;;;;;;5.47;4.97;;;19.20;33.90;;;;;;10458778;28;20366;-68
2023/05/04 09:18:45;;;;;;;5.87;5.37;;;19.40;33.80;;;;;;10460597;28;20681;-68
2023/05/04 09:23:49;;;;;;;6.03;4.77;;;19.60;33.60;;;;;;10458282;28;20258;-68
2023/05/04 09:28:55;;;;;;;6.40;5.40;;;19.80;33.00;;;;;;10459024;28;20228;-68
2023/05/04 09:34:08;;;;;;;5.70;5.20;;;20.00;32.90;;;;;;10459852;28;20733;-68
2023/05/04 09:39:12;;;;;;;4.83;4.43;;;20.20;32.70;;;;;;10460208;28;20224;-68
2023/05/04 09:44:21;;;;;;;5.30;4.80;;;20.40;32.30;;;;;;10456633;28;20228;-68
2023/05/04 09:49:31;;;;;;;5.30;4.70;;;20.60;30.80;;;;;;10461749;28;20773;-68
2023/05/04 09:54:37;;;;;;;5.60;5.17;;;20.70;30.50;;;;;;10458849;28;20243;-68
2023/05/04 09:59:42;;;;;;;5.70;5.10;;;20.80;31.40;;;;;;10470435;28;20400;-68
2023/05/04 10:04:46;;;;;;;5.00;4.60;;;20.90;30.30;;;;;;10470710;28;20270;-68
2023/05/04 10:09:50;;;;;;;5.23;4.80;;;20.90;31.00;;;;;;10472429;28;20241;-68
2023/05/04 10:14:55;;;;;;;5.10;4.67;;;21.00;30.80;;;;;;10471035;28;20236;-68
2023/05/04 10:20:11;;;;;;;4.60;4.20;;;21.10;31.60;;;;;;10470560;28;20743;-68
2023/05/04 10:25:43;;;;;;;5.00;4.50;;;21.30;30.10;;;;;;10472215;28;20235;-68
2023/05/04 10:30:48;;;;;;;5.37;4.87;;;21.50;30.40;;;;;;10471628;28;20228;-68
2023/05/04 10:35:52;;;;;;;5.47;4.77;;;21.70;30.00;;;;;;10469038;28;20239;-68
2023/05/04 10:40:56;;;;;;;5.13;4.63;;;21.80;30.20;;;;;;10472711;28;20314;-68
2023/05/04 10:46:01;;;;;;;5.07;4.70;;;21.90;30.20;;;;;;10470661;28;20233;-68
2023/05/04 10:51:04;;;;;;;4.37;3.97;;;22.00;29.90;;;;;;10471679;28;20709;-68
2023/05/04 10:56:08;;;;;;;4.03;3.73;;;22.20;30.20;;;;;;10474705;28;20232;-68
2023/05/04 11:01:13;;;;;;;4.53;4.13;;;22.30;30.00;;;;;;10474878;28;20228;-68
2023/05/04 11:06:18;;;;;;;4.47;4.07;;;22.40;29.20;;;;;;10473279;28;20697;-68
2023/05/04 11:11:26;;;;;;;6.07;4.53;;;22.50;29.10;;;;;;10471180;28;20959;-68
2023/05/04 11:16:30;;;;;;;4.70;4.30;;;22.60;29.10;;;;;;10478354;28;20229;-68
2023/05/04 11:21:33;;;;;;;4.33;3.93;;;22.60;28.80;;;;;;10478171;28;20303;-68
2023/05/04 11:26:46;;;;;;;3.93;3.43;;;22.70;28.80;;;;;;10479575;28;20615;-68
2023/05/04 11:31:58;;;;;;;5.20;3.87;;;22.70;28.20;;;;;;10475093;28;20232;-68
2023/05/04 11:37:04;;;;;;;5.63;4.33;;;22.80;27.20;;;;;;10475956;28;20591;-68
2023/05/04 11:42:08;;;;;;;3.77;3.37;;;22.90;27.30;;;;;;10480311;28;20567;-68
2023/05/04 11:47:13;;;;;;;3.80;3.50;;;22.80;28.00;;;;;;10480319;28;20232;-68
2023/05/04 11:52:16;;;;;;;4.00;3.70;;;22.80;27.50;;;;;;10480643;28;20225;-68
2023/05/04 11:57:22;;;;;;;3.67;3.37;;;22.90;28.10;;;;;;10476056;28;20232;-68
2023/05/04 12:02:27;;;;;;;4.23;3.80;;;22.90;27.30;;;;;;10477956;28;20251;-68
2023/05/04 12:07:30;;;;;;;3.80;2.97;;;23.00;27.90;;;;;;10476520;28;20232;-69
2023/05/04 12:12:36;;;;;;;3.30;3.00;;;23.00;27.30;;;;;;10473161;28;20721;-68
2023/05/04 12:17:41;;;;;;;4.50;3.53;;;23.10;27.40;;;;;;10476573;28;20231;-68
2023/05/04 12:22:45;;;;;;;3.57;3.27;;;23.10;26.70;;;;;;10471005;28;20228;-68
2023/05/04 12:27:48;;;;;;;3.70;3.30;;;23.20;27.50;;;;;;10473937;28;20265;-68
2023/05/04 12:32:53;;;;;;;4.10;2.80;;;23.20;27.50;;;;;;10476439;28;20228;-68
2023/05/04 12:37:56;;;;;;;3.53;3.23;;;23.30;25.60;;;;;;10474843;28;20224;-68
2023/05/04 12:42:59;;;;;;;3.20;2.90;;;23.30;26.60;;;;;;10470961;28;20671;-68
2023/05/04 12:48:04;;;;;;;3.13;2.93;;;23.30;26.40;;;;;;10472678;28;20691;-69
2023/05/04 12:53:07;;;;;;;3.20;2.90;;;23.30;25.40;;;;;;10474657;28;20267;-69
2023/05/04 12:58:11;;;;;;;3.77;3.47;;;23.30;26.10;;;;;;10476058;28;20224;-68
2023/05/04 13:03:16;;;;;;;5.13;2.83;;;23.30;26.00;;;;;;10476630;28;20685;-68
2023/05/04 13:08:20;;;;;;;2.63;2.40;;;23.40;25.60;;;;;;10473512;28;20258;-69
2023/05/04 13:13:27;;;;;;;3.53;2.17;;;23.40;25.60;;;;;;10473189;28;20232;-69
2023/05/04 13:18:32;;;;;;;3.10;2.60;;;23.50;25.80;;;;;;10468496;28;20228;-69
2023/05/04 13:23:35;;;;;;;3.23;2.93;;;23.50;25.20;;;;;;10470059;28;20717;-69
2023/05/04 13:28:38;;;;;;;5.40;2.70;;;23.60;25.40;;;;;;10473377;28;20609;-69
2023/05/04 13:33:44;;;;;;;2.37;2.17;;;23.60;25.40;;;;;;10470632;28;20235;-69
2023/05/04 13:38:47;;;;;;;2.87;2.67;;;23.70;24.10;;;;;;10471921;28;20237;-69
2023/05/04 13:43:50;;;;;;;2.97;2.67;;;23.70;24.70;;;;;;10474509;28;20219;-69
2023/05/04 13:48:55;;;;;;;2.77;2.10;;;23.70;24.70;;;;;;10470842;28;20247;-69
2023/05/04 13:53:59;;;;;;;3.03;2.43;;;23.70;24.40;;;;;;10473738;28;20251;-69
2023/05/04 13:59:04;;;;;;;3.80;2.50;;;23.80;24.40;;;;;;10472618;28;20224;-69
2023/05/04 14:04:09;;;;;;;2.70;2.50;;;23.80;24.20;;;;;;10474085;28;20610;-70
2023/05/04 14:09:12;;;;;;;2.73;2.47;;;23.90;23.40;;;;;;10472820;28;20233;-71
2023/05/04 14:14:15;;;;;;;2.17;2.07;;;23.90;24.10;;;;;;10471345;28;20228;-67
2023/05/04 14:19:20;;;;;;;2.17;1.97;;;23.90;24.10;;;;;;10475872;28;20232;-68
2023/05/04 14:24:24;;;;;;;2.50;2.30;;;24.00;23.60;;;;;;10467904;28;20353;-68
2023/05/04 14:29:27;;;;;;;2.37;2.00;;;24.10;23.40;;;;;;10473601;28;20224;-68
2023/05/04 14:34:32;;;;;;;2.20;2.10;;;24.20;23.60;;;;;;10469848;28;20227;-71
2023/05/04 14:39:35;;;;;;;2.63;2.10;;;24.20;22.90;;;;;;10471586;28;20920;-68
2023/05/04 14:44:38;;;;;;;2.33;2.13;;;24.20;23.10;;;;;;10466723;28;20224;-68
2023/05/04 14:49:43;;;;;;;3.23;2.40;;;24.20;23.00;;;;;;10475633;28;20907;-68
2023/05/04 14:54:46;;;;;;;2.60;2.40;;;24.20;22.70;;;;;;10480666;28;20220;-68
2023/05/04 14:59:50;;;;;;;2.73;2.37;;;24.30;22.90;;;;;;10478388;28;20232;-68
2023/05/04 15:04:55;;;;;;;3.43;2.23;;;24.30;22.80;;;;;;10480486;28;20224;-68
2023/05/04 15:09:58;;;;;;;2.70;2.20;;;24.30;21.60;;;;;;10480632;28;20243;-68
2023/05/04 15:15:01;;;;;;;2.53;2.33;;;24.20;22.30;;;;;;10479953;28;20243;-68
2023/05/04 15:20:08;;;;;;;2.77;2.30;;;24.10;22.30;;;;;;10481375;28;20228;-70
2023/05/04 15:25:12;;;;;;;3.50;2.20;;;24.10;21.40;;;;;;10481966;28;20278;-68
2023/05/04 15:30:15;;;;;;;2.97;2.53;;;24.10;22.20;;;;;;10479923;28;20228;-68
2023/05/04 15:35:20;;;;;;;2.60;2.40;;;24.10;22.10;;;;;;10480645;28;21049;-68
2023/05/04 15:40:23;;;;;;;2.67;2.40;;;24.10;21.20;;;;;;10484553;28;20224;-68
2023/05/04 15:45:26;;;;;;;2.77;2.37;;;24.00;21.90;;;;;;10481283;28;20890;-68
2023/05/04 15:50:31;;;;;;;3.53;2.30;;;24.00;21.90;;;;;;10484165;28;20724;-68
2023/05/04 15:55:35;;;;;;;2.20;2.00;;;24.00;21.60;;;;;;10482097;28;20224;-68
2023/05/04 16:00:38;;;;;;;2.50;2.30;;;23.90;21.70;;;;;;10482608;28;20229;-68
2023/05/04 16:05:42;;;;;;;2.90;2.20;;;24.00;21.50;;;;;;10477220;28;20229;-67
2023/05/04 16:10:46;;;;;;;3.70;3.30;;;23.90;20.70;;;;;;10479838;28;20660;-68
2023/05/04 16:15:50;;;;;;;3.93;2.40;;;23.90;21.00;;;;;;10479198;28;20731;-70
2023/05/04 16:20:55;;;;;;;2.57;2.37;;;23.80;21.20;;;;;;10480245;28;20243;-69
2023/05/04 16:25:58;;;;;;;2.30;2.10;;;23.80;20.80;;;;;;10479893;28;20239;-68
2023/05/04 16:31:03;;;;;;;2.20;2.00;;;23.80;21.00;;;;;;10479597;28;20606;-68
2023/05/04 16:36:09;;;;;;;1.90;1.80;;;23.70;20.90;;;;;;10479879;28;20250;-69
2023/05/04 16:41:12;;;;;;;1.93;1.77;;;23.70;20.30;;;;;;10479785;28;20234;-69
2023/05/04 16:46:16;;;;;;;1.80;1.70;;;23.70;20.70;;;;;;10479488;28;20231;-69
2023/05/04 16:51:20;;;;;;;1.73;1.60;;;23.60;20.50;;;;;;10480712;28;20239;-69
2023/05/04 16:56:23;;;;;;;1.60;1.50;;;23.60;20.40;;;;;;10477767;28;20228;-69
2023/05/04 17:01:27;;;;;;;2.10;1.60;;;23.60;20.40;;;;;;10476460;28;20224;-68
2023/05/04 17:06:31;;;;;;;2.83;1.90;;;23.60;20.30;;;;;;10479043;28;20227;-68
2023/05/04 17:11:34;;;;;;;1.90;1.80;;;23.50;19.40;;;;;;10475132;28;20224;-68
2023/05/04 17:16:38;;;;;;;1.53;1.43;;;23.40;19.70;;;;;;10476915;28;20229;-68
2023/05/04 17:21:42;;;;;;;1.60;1.50;;;23.30;19.90;;;;;;10475436;28;20239;-69
2023/05/04 17:26:46;;;;;;;1.93;1.83;;;23.30;19.80;;;;;;10478228;28;20247;-68
2023/05/04 17:31:49;;;;;;;1.87;1.67;;;23.20;19.90;;;;;;10477031;28;20285;-68
2023/05/04 17:36:53;;;;;;;2.07;1.97;;;23.10;19.80;;;;;;10476785;28;20248;-68
2023/05/04 17:41:57;;;;;;;2.00;1.80;;;23.10;19.50;;;;;;10465961;28;20221;-68
2023/05/04 17:47:00;;;;;;;2.70;1.63;;;23.00;19.60;;;;;;10468776;28;20787;-68
2023/05/04 17:52:05;;;;;;;1.70;1.60;;;23.00;19.70;;;;;;10472058;28;21212;-68
2023/05/04 17:57:08;;;;;;;1.73;1.63;;;22.90;19.80;;;;;;10470608;28;20985;-68
2023/05/04 18:02:11;;;;;;;2.30;2.10;;;22.80;19.90;;;;;;10472386;28;20735;-68
2023/05/04 18:07:16;;;;;;;2.10;1.70;;;22.80;19.70;;;;;;10471210;28;20739;-68
2023/05/04 18:12:19;;;;;;;2.17;1.90;;;22.80;19.50;;;;;;10470241;28;20243;-68
2023/05/04 18:17:22;;;;;;;1.77;1.67;;;22.80;19.80;;;;;;10471079;28;20265;-68
2023/05/04 18:22:27;;;;;;;1.53;1.40;;;22.70;19.90;;;;;;10474083;28;20235;-68
2023/05/04 18:27:32;;;;;;;1.93;1.73;;;22.70;20.20;;;;;;10482820;28;20246;-68
2023/05/04 18:32:35;;;;;;;2.67;1.83;;;22.70;20.20;;;;;;10480869;28;20269;-68
2023/05/04 18:37:40;;;;;;;1.90;1.80;;;22.70;20.70;;;;;;10481829;28;20607;-68
2023/05/04 18:42:43;;;;;;;2.37;2.17;;;22.60;20.40;;;;;;10483726;28;20224;-67
2023/05/04 18:47:46;;;;;;;2.27;2.07;;;22.50;20.60;;;;;;10482941;28;20247;-68
2023/05/04 18:52:52;;;;;;;1.90;1.73;;;22.40;20.60;;;;;;10482453;28;20321;-68
2023/05/04 18:57:56;;;;;;;2.00;1.80;;;22.20;20.50;;;;;;10481944;28;20277;-67
2023/05/04 19:02:59;;;;;;;1.90;1.80;;;22.10;20.90;;;;;;10481455;28;20224;-67
2023/05/04 19:08:04;;;;;;;2.00;1.90;;;22.00;20.60;;;;;;10480436;28;20237;-69
2023/05/04 19:13:07;;;;;;;2.80;1.90;;;21.80;20.80;;;;;;10478428;28;20239;-68
2023/05/04 19:18:10;;;;;;;4.50;2.50;;;21.70;20.90;;;;;;10475797;28;20290;-67
2023/05/04 19:23:15;;;;;;;3.20;2.90;;;21.50;20.80;;;;;;10475312;28;20239;-68
2023/05/04 19:28:18;;;;;;;4.13;3.00;;;21.40;20.80;;;;;;10476469;28;20231;-67
2023/05/04 19:33:23;;;;;;;4.03;2.83;;;21.30;21.20;;;;;;10479334;28;20246;-68
2023/05/04 19:38:40;;;;;;;2.70;2.50;;;21.10;21.20;;;;;;10475043;28;20224;-67
2023/05/04 19:43:43;;;;;;;2.83;2.63;;;21.00;21.60;;;;;;10477580;28;20251;-67
2023/05/04 19:48:46;;;;;;;2.70;2.50;;;20.80;21.50;;;;;;10475095;28;20286;-67
2023/05/04 19:53:51;;;;;;;3.13;2.83;;;20.60;21.30;;;;;;10478857;28;20572;-67
2023/05/04 19:58:54;;;;;;;2.70;2.50;;;20.40;21.60;;;;;;10483550;28;20236;-79
2023/05/04 20:03:58;;;;;;;3.00;2.70;;;20.20;21.60;;;;;;10498708;28;20224;-79
2023/05/04 20:09:03;;;;;;;2.77;2.53;;;20.00;21.80;;;;;;10487324;28;20240;-79
2023/05/04 20:14:06;;;;;;;2.83;2.50;;;19.80;22.10;;;;;;10477325;28;20599;-78
2023/05/04 20:19:10;;;;;;;2.53;2.27;;;19.70;22.30;;;;;;10478010;28;20228;-78
2023/05/04 20:24:14;;;;;;;2.00;1.90;;;19.50;22.30;;;;;;10477658;28;20670;-78
2023/05/04 20:29:18;;;;;;;3.70;2.57;;;19.40;22.70;;;;;;10473509;28;20229;-79
2023/05/04 20:34:21;;;;;;;2.20;2.10;;;19.30;22.60;;;;;;10475565;28;20229;-79
2023/05/04 20:39:25;;;;;;;3.10;2.73;;;19.30;22.80;;;;;;10479354;28;20246;-79
2023/05/04 20:44:29;;;;;;;3.03;2.70;;;19.20;23.10;;;;;;10477800;28;20228;-79
2023/05/04 20:49:32;;;;;;;3.10;2.80;;;19.10;22.50;;;;;;10479653;28;20225;-78
2023/05/04 20:54:38;;;;;;;2.63;2.30;;;19.00;22.60;;;;;;10472170;28;20307;-79
2023/05/04 20:59:41;;;;;;;3.10;2.53;;;18.90;22.70;;;;;;10478296;28;20239;-78
2023/05/04 21:04:47;;;;;;;3.17;2.70;;;18.90;22.70;;;;;;10479642;28;20886;-79
2023/05/04 21:09:56;;;;;;;2.47;2.27;;;18.70;23.00;;;;;;10481582;28;20644;-78
2023/05/04 21:14:59;;;;;;;4.53;3.00;;;18.60;23.20;;;;;;10480597;28;20290;-79
2023/05/04 21:20:03;;;;;;;2.43;2.23;;;18.50;23.00;;;;;;10474208;28;20270;-78
2023/05/04 21:25:08;;;;;;;3.20;2.90;;;18.40;23.00;;;;;;10480586;28;20232;-78
2023/05/04 21:30:11;;;;;;;3.53;2.60;;;18.20;23.30;;;;;;10479146;28;20716;-78
2023/05/04 21:35:15;;;;;;;2.80;2.60;;;18.10;23.20;;;;;;10476263;28;20603;-78
2023/05/04 21:40:20;;;;;;;3.37;3.07;;;17.90;23.10;;;;;;10479761;28;20229;-78
2023/05/04 21:45:23;;;;;;;4.70;3.07;;;17.70;23.80;;;;;;10478329;28;20226;-79
2023/05/04 21:50:26;;;;;;;2.40;2.20;;;17.50;23.70;;;;;;10478580;28;20853;-79
2023/05/04 21:55:30;;;;;;;3.57;2.90;;;17.40;23.60;;;;;;10480465;28;20465;-79
2023/05/04 22:00:34;;;;;;;2.97;2.73;;;17.30;23.80;;;;;;10481519;28;20775;-79
2023/05/04 22:05:37;;;;;;;2.70;2.50;;;17.30;23.70;;;;;;10478810;28;20230;-79
2023/05/04 22:10:42;;;;;;;4.03;2.17;;;17.20;23.90;;;;;;10479001;28;20228;-79
2023/05/04 22:15:45;;;;;;;2.83;2.50;;;17.20;24.20;;;;;;10478100;28;20285;-79
2023/05/04 22:20:52;;;;;;;2.87;2.67;;;17.20;24.10;;;;;;10480854;28;20251;-79
2023/05/04 22:25:57;;;;;;;2.67;2.43;;;17.10;24.10;;;;;;10479115;28;20323;-79
2023/05/04 22:31:00;;;;;;;2.20;2.00;;;17.10;24.40;;;;;;10474821;28;20243;-79
2023/05/04 22:36:04;;;;;;;2.80;2.43;;;17.10;24.30;;;;;;10467444;28;20360;-78
2023/05/04 22:41:08;;;;;;;3.20;2.40;;;17.00;24.40;;;;;;10479025;28;20688;-78
2023/05/04 22:46:15;;;;;;;3.00;2.70;;;17.00;24.60;;;;;;10476167;28;20233;-78
2023/05/04 22:51:19;;;;;;;2.53;2.10;;;16.90;24.70;;;;;;10470314;28;20224;-79
2023/05/04 22:56:23;;;;;;;3.00;2.80;;;16.80;24.50;;;;;;10476029;28;20283;-79
2023/05/04 23:01:28;;;;;;;2.50;2.30;;;16.80;24.90;;;;;;10478633;28;20228;-79
2023/05/04 23:06:32;;;;;;;2.77;2.57;;;16.70;24.70;;;;;;10473908;28;20232;-79
2023/05/04 23:11:37;;;;;;;2.27;2.07;;;16.60;24.80;;;;;;10478403;28;20231;-79
2023/05/04 23:16:41;;;;;;;2.40;2.20;;;16.50;24.90;;;;;;10480654;28;20641;-79
2023/05/04 23:21:44;;;;;;;3.17;2.87;;;16.50;25.00;;;;;;10481433;28;20289;-79
2023/05/04 23:26:49;;;;;;;2.30;2.20;;;16.40;25.10;;;;;;10478805;28;20236;-78
2023/05/04 23:31:52;;;;;;;2.63;2.30;;;16.30;25.00;;;;;;10484664;28;20232;-79
2023/05/04 23:36:55;;;;;;;2.67;2.47;;;16.30;25.00;;;;;;10481382;28;20326;-79
2023/05/04 23:42:00;;;;;;;2.93;2.73;;;16.20;25.20;;;;;;10485894;28;20560;-79
2023/05/04 23:47:03;;;;;;;3.17;2.97;;;16.10;25.50;;;;;;10478346;28;20266;-78
2023/05/04 23:52:06;;;;;;;2.60;2.40;;;16.00;25.30;;;;;;10473741;28;20228;-78
2023/05/04 23:57:11;;;;;;;2.97;2.50;;;15.90;25.40;;;;;;10480086;28;20228;-78
